sensor_id;sensor_type;location;lat;lon;timestamp;P1;durP1;ratioP1;P2;durP2;ratioP2
12127;SDS011;6127;57.702;11.904;2024-03-08T00:01:12;0.70;;;0.70;;
12127;SDS011;6127;57.702;11.904;2024-03-08T00:03:38;0.60;;;0.60;;
12127;SDS011;6127;57.702;11.904;2024-03-08T00:06:05;0.70;;;0.70;;
12127;SDS011;6127;57.702;11.904;2024-03-08T00:08:31;0.70;;;0.70;;
12127;SDS011;6127;57.702;11.904;2024-03-08T00:10:57;0.60;;;0.60;;
12127;SDS011;6127;57.702;11.904;2024-03-08T00:13:23;0.70;;;0.70;;
12127;SDS011;6127;57.702;11.904;2024-03-08T00:15:50;0.68;;;0.68;;
12127;SDS011;6127;57.702;11.904;2024-03-08T00:18:16;0.60;;;0.60;;
12127;SDS011;6127;57.702;11.904;2024-03-08T00:20:42;0.60;;;0.60;;
12127;SDS011;6127;57.702;11.904;2024-03-08T00:23:09;0.50;;;0.50;;
12127;SDS011;6127;57.702;11.904;2024-03-08T00:25:36;0.60;;;0.60;;
12127;SDS011;6127;57.702;11.904;2024-03-08T00:28:02;0.70;;;0.70;;
12127;SDS011;6127;57.702;11.904;2024-03-08T00:30:31;0.60;;;0.60;;
12127;SDS011;6127;57.702;11.904;2024-03-08T00:32:57;0.60;;;0.60;;
12127;SDS011;6127;57.702;11.904;2024-03-08T00:35:23;0.60;;;0.60;;
12127;SDS011;6127;57.702;11.904;2024-03-08T00:37:49;0.70;;;0.70;;
12127;SDS011;6127;57.702;11.904;2024-03-08T00:40:15;0.60;;;0.60;;
12127;SDS011;6127;57.702;11.904;2024-03-08T00:42:41;0.60;;;0.60;;
12127;SDS011;6127;57.702;11.904;2024-03-08T00:45:08;0.70;;;0.70;;
12127;SDS011;6127;57.702;11.904;2024-03-08T00:47:35;0.60;;;0.60;;
12127;SDS011;6127;57.702;11.904;2024-03-08T00:50:01;0.70;;;0.70;;
12127;SDS011;6127;57.702;11.904;2024-03-08T00:52:29;0.60;;;0.60;;
12127;SDS011;6127;57.702;11.904;2024-03-08T00:54:55;0.60;;;0.60;;
12127;SDS011;6127;57.702;11.904;2024-03-08T00:57:21;0.60;;;0.60;;
12127;SDS011;6127;57.702;11.904;2024-03-08T00:59:47;0.60;;;0.60;;
12127;SDS011;6127;57.702;11.904;2024-03-08T01:02:13;0.70;;;0.70;;
12127;SDS011;6127;57.702;11.904;2024-03-08T01:04:39;0.60;;;0.60;;
12127;SDS011;6127;57.702;11.904;2024-03-08T01:07:05;0.70;;;0.70;;
12127;SDS011;6127;57.702;11.904;2024-03-08T01:09:31;0.60;;;0.60;;
12127;SDS011;6127;57.702;11.904;2024-03-08T01:11:57;0.70;;;0.70;;
12127;SDS011;6127;57.702;11.904;2024-03-08T01:14:24;0.70;;;0.70;;
12127;SDS011;6127;57.702;11.904;2024-03-08T01:16:56;0.60;;;0.60;;
12127;SDS011;6127;57.702;11.904;2024-03-08T01:19:22;0.70;;;0.70;;
12127;SDS011;6127;57.702;11.904;2024-03-08T01:21:49;0.60;;;0.60;;
12127;SDS011;6127;57.702;11.904;2024-03-08T01:24:15;0.70;;;0.70;;
12127;SDS011;6127;57.702;11.904;2024-03-08T01:26:41;0.60;;;0.60;;
12127;SDS011;6127;57.702;11.904;2024-03-08T01:29:07;0.60;;;0.60;;
12127;SDS011;6127;57.702;11.904;2024-03-08T01:31:33;0.70;;;0.70;;
12127;SDS011;6127;57.702;11.904;2024-03-08T01:33:59;0.60;;;0.60;;
12127;SDS011;6127;57.702;11.904;2024-03-08T01:36:25;0.70;;;0.70;;
12127;SDS011;6127;57.702;11.904;2024-03-08T01:38:51;0.60;;;0.60;;
12127;SDS011;6127;57.702;11.904;2024-03-08T01:41:18;0.70;;;0.70;;
12127;SDS011;6127;57.702;11.904;2024-03-08T01:43:44;0.60;;;0.60;;
12127;SDS011;6127;57.702;11.904;2024-03-08T01:46:11;0.60;;;0.60;;
12127;SDS011;6127;57.702;11.904;2024-03-08T01:48:38;0.70;;;0.70;;
12127;SDS011;6127;57.702;11.904;2024-03-08T01:51:06;0.60;;;0.60;;
12127;SDS011;6127;57.702;11.904;2024-03-08T02:19:31;0.70;;;0.70;;
12127;SDS011;6127;57.702;11.904;2024-03-08T02:21:58;0.60;;;0.60;;
12127;SDS011;6127;57.702;11.904;2024-03-08T02:24:24;0.70;;;0.70;;
12127;SDS011;6127;57.702;11.904;2024-03-08T02:26:50;0.60;;;0.60;;
12127;SDS011;6127;57.702;11.904;2024-03-08T02:29:16;0.60;;;0.60;;
12127;SDS011;6127;57.702;11.904;2024-03-08T02:31:42;0.70;;;0.70;;
12127;SDS011;6127;57.702;11.904;2024-03-08T02:34:08;0.60;;;0.60;;
12127;SDS011;6127;57.702;11.904;2024-03-08T02:36:34;0.70;;;0.70;;
12127;SDS011;6127;57.702;11.904;2024-03-08T02:39:03;0.60;;;0.60;;
12127;SDS011;6127;57.702;11.904;2024-03-08T02:41:30;0.70;;;0.70;;
12127;SDS011;6127;57.702;11.904;2024-03-08T02:43:57;0.50;;;0.50;;
12127;SDS011;6127;57.702;11.904;2024-03-08T02:46:23;0.60;;;0.60;;
12127;SDS011;6127;57.702;11.904;2024-03-08T02:48:49;0.68;;;0.68;;
12127;SDS011;6127;57.702;11.904;2024-03-08T02:51:15;0.60;;;0.60;;
12127;SDS011;6127;57.702;11.904;2024-03-08T02:53:41;0.80;;;0.80;;
12127;SDS011;6127;57.702;11.904;2024-03-08T02:56:08;0.60;;;0.60;;
12127;SDS011;6127;57.702;11.904;2024-03-08T02:58:38;0.70;;;0.70;;
12127;SDS011;6127;57.702;11.904;2024-03-08T03:01:03;0.60;;;0.60;;
12127;SDS011;6127;57.702;11.904;2024-03-08T03:03:29;0.60;;;0.60;;
12127;SDS011;6127;57.702;11.904;2024-03-08T03:05:55;0.57;;;0.57;;
12127;SDS011;6127;57.702;11.904;2024-03-08T03:08:21;0.60;;;0.60;;
12127;SDS011;6127;57.702;11.904;2024-03-08T03:10:48;0.70;;;0.70;;
12127;SDS011;6127;57.702;11.904;2024-03-08T03:13:14;0.60;;;0.60;;
12127;SDS011;6127;57.702;11.904;2024-03-08T03:15:40;0.70;;;0.70;;
12127;SDS011;6127;57.702;11.904;2024-03-08T03:18:09;0.60;;;0.60;;
12127;SDS011;6127;57.702;11.904;2024-03-08T03:20:36;0.70;;;0.70;;
12127;SDS011;6127;57.702;11.904;2024-03-08T03:23:05;0.60;;;0.60;;
12127;SDS011;6127;57.702;11.904;2024-03-08T03:25:33;0.60;;;0.60;;
12127;SDS011;6127;57.702;11.904;2024-03-08T03:28:00;0.60;;;0.60;;
12127;SDS011;6127;57.702;11.904;2024-03-08T03:30:26;0.60;;;0.60;;
12127;SDS011;6127;57.702;11.904;2024-03-08T03:32:55;0.70;;;0.70;;
12127;SDS011;6127;57.702;11.904;2024-03-08T03:35:25;0.60;;;0.60;;
12127;SDS011;6127;57.702;11.904;2024-03-08T03:37:51;0.70;;;0.70;;
12127;SDS011;6127;57.702;11.904;2024-03-08T03:40:30;0.60;;;0.60;;
12127;SDS011;6127;57.702;11.904;2024-03-08T03:42:56;0.60;;;0.60;;
12127;SDS011;6127;57.702;11.904;2024-03-08T03:45:22;0.60;;;0.60;;
12127;SDS011;6127;57.702;11.904;2024-03-08T03:47:48;0.68;;;0.68;;
12127;SDS011;6127;57.702;11.904;2024-03-08T03:50:14;0.60;;;0.60;;
12127;SDS011;6127;57.702;11.904;2024-03-08T03:52:40;0.60;;;0.60;;
12127;SDS011;6127;57.702;11.904;2024-03-08T03:55:07;0.70;;;0.70;;
12127;SDS011;6127;57.702;11.904;2024-03-08T03:57:33;0.60;;;0.60;;
12127;SDS011;6127;57.702;11.904;2024-03-08T03:59:59;0.60;;;0.60;;
12127;SDS011;6127;57.702;11.904;2024-03-08T04:02:27;0.60;;;0.60;;
12127;SDS011;6127;57.702;11.904;2024-03-08T04:04:53;0.63;;;0.63;;
12127;SDS011;6127;57.702;11.904;2024-03-08T04:07:19;0.60;;;0.60;;
12127;SDS011;6127;57.702;11.904;2024-03-08T04:09:45;0.60;;;0.60;;
12127;SDS011;6127;57.702;11.904;2024-03-08T04:12:11;0.70;;;0.70;;
12127;SDS011;6127;57.702;11.904;2024-03-08T04:14:40;0.60;;;0.60;;
12127;SDS011;6127;57.702;11.904;2024-03-08T04:17:06;0.70;;;0.70;;
12127;SDS011;6127;57.702;11.904;2024-03-08T04:19:33;0.60;;;0.60;;
12127;SDS011;6127;57.702;11.904;2024-03-08T04:22:00;0.70;;;0.70;;
12127;SDS011;6127;57.702;11.904;2024-03-08T04:32:06;0.60;;;0.60;;
12127;SDS011;6127;57.702;11.904;2024-03-08T04:34:33;0.70;;;0.70;;
12127;SDS011;6127;57.702;11.904;2024-03-08T04:37:00;0.60;;;0.60;;
12127;SDS011;6127;57.702;11.904;2024-03-08T04:39:26;0.65;;;0.65;;
12127;SDS011;6127;57.702;11.904;2024-03-08T04:42:01;0.60;;;0.60;;
12127;SDS011;6127;57.702;11.904;2024-03-08T04:44:36;0.60;;;0.60;;
12127;SDS011;6127;57.702;11.904;2024-03-08T04:47:03;0.70;;;0.70;;
12127;SDS011;6127;57.702;11.904;2024-03-08T04:49:30;0.60;;;0.60;;
12127;SDS011;6127;57.702;11.904;2024-03-08T04:51:56;0.70;;;0.70;;
12127;SDS011;6127;57.702;11.904;2024-03-08T04:56:57;0.70;;;0.70;;
12127;SDS011;6127;57.702;11.904;2024-03-08T04:59:25;0.60;;;0.60;;
12127;SDS011;6127;57.702;11.904;2024-03-08T05:01:51;0.60;;;0.60;;
12127;SDS011;6127;57.702;11.904;2024-03-08T05:04:17;0.60;;;0.60;;
12127;SDS011;6127;57.702;11.904;2024-03-08T05:06:43;0.60;;;0.60;;
12127;SDS011;6127;57.702;11.904;2024-03-08T05:11:36;0.60;;;0.60;;
12127;SDS011;6127;57.702;11.904;2024-03-08T05:14:02;0.70;;;0.70;;
12127;SDS011;6127;57.702;11.904;2024-03-08T05:16:28;0.60;;;0.60;;
12127;SDS011;6127;57.702;11.904;2024-03-08T05:18:54;0.70;;;0.70;;
12127;SDS011;6127;57.702;11.904;2024-03-08T05:21:21;0.60;;;0.60;;
12127;SDS011;6127;57.702;11.904;2024-03-08T05:23:48;0.60;;;0.60;;
12127;SDS011;6127;57.702;11.904;2024-03-08T05:26:16;0.60;;;0.60;;
12127;SDS011;6127;57.702;11.904;2024-03-08T05:28:42;0.60;;;0.60;;
12127;SDS011;6127;57.702;11.904;2024-03-08T05:31:08;0.70;;;0.70;;
12127;SDS011;6127;57.702;11.904;2024-03-08T05:33:34;0.60;;;0.60;;
12127;SDS011;6127;57.702;11.904;2024-03-08T05:36:00;0.70;;;0.70;;
12127;SDS011;6127;57.702;11.904;2024-03-08T05:38:27;0.60;;;0.60;;
12127;SDS011;6127;57.702;11.904;2024-03-08T05:40:53;0.70;;;0.70;;
12127;SDS011;6127;57.702;11.904;2024-03-08T05:43:19;0.60;;;0.60;;
12127;SDS011;6127;57.702;11.904;2024-03-08T05:45:45;0.60;;;0.60;;
12127;SDS011;6127;57.702;11.904;2024-03-08T05:48:12;0.60;;;0.60;;
12127;SDS011;6127;57.702;11.904;2024-03-08T05:50:38;0.70;;;0.70;;
12127;SDS011;6127;57.702;11.904;2024-03-08T05:53:04;0.60;;;0.60;;
12127;SDS011;6127;57.702;11.904;2024-03-08T05:55:33;0.60;;;0.60;;
12127;SDS011;6127;57.702;11.904;2024-03-08T05:58:02;0.80;;;0.80;;
12127;SDS011;6127;57.702;11.904;2024-03-08T06:00:28;0.60;;;0.60;;
12127;SDS011;6127;57.702;11.904;2024-03-08T06:02:56;0.70;;;0.70;;
12127;SDS011;6127;57.702;11.904;2024-03-08T06:05:23;0.60;;;0.60;;
12127;SDS011;6127;57.702;11.904;2024-03-08T06:07:49;0.60;;;0.60;;
12127;SDS011;6127;57.702;11.904;2024-03-08T06:10:18;0.60;;;0.60;;
12127;SDS011;6127;57.702;11.904;2024-03-08T06:12:44;0.60;;;0.60;;
12127;SDS011;6127;57.702;11.904;2024-03-08T06:15:10;0.60;;;0.60;;
12127;SDS011;6127;57.702;11.904;2024-03-08T06:17:40;0.60;;;0.60;;
12127;SDS011;6127;57.702;11.904;2024-03-08T06:20:06;0.80;;;0.80;;
12127;SDS011;6127;57.702;11.904;2024-03-08T06:22:35;0.60;;;0.60;;
12127;SDS011;6127;57.702;11.904;2024-03-08T06:25:01;0.70;;;0.70;;
12127;SDS011;6127;57.702;11.904;2024-03-08T06:27:27;0.60;;;0.60;;
12127;SDS011;6127;57.702;11.904;2024-03-08T06:29:53;0.60;;;0.60;;
12127;SDS011;6127;57.702;11.904;2024-03-08T06:32:19;0.70;;;0.70;;
12127;SDS011;6127;57.702;11.904;2024-03-08T06:34:45;0.60;;;0.60;;
12127;SDS011;6127;57.702;11.904;2024-03-08T06:37:11;0.80;;;0.80;;
12127;SDS011;6127;57.702;11.904;2024-03-08T06:39:37;0.60;;;0.60;;
12127;SDS011;6127;57.702;11.904;2024-03-08T06:42:03;0.70;;;0.70;;
12127;SDS011;6127;57.702;11.904;2024-03-08T06:44:29;0.60;;;0.60;;
12127;SDS011;6127;57.702;11.904;2024-03-08T06:46:55;0.70;;;0.70;;
12127;SDS011;6127;57.702;11.904;2024-03-08T06:49:21;0.60;;;0.60;;
12127;SDS011;6127;57.702;11.904;2024-03-08T06:51:47;0.60;;;0.60;;
12127;SDS011;6127;57.702;11.904;2024-03-08T06:56:59;0.60;;;0.60;;
12127;SDS011;6127;57.702;11.904;2024-03-08T06:59:25;0.70;;;0.70;;
12127;SDS011;6127;57.702;11.904;2024-03-08T07:01:51;0.60;;;0.60;;
12127;SDS011;6127;57.702;11.904;2024-03-08T07:04:19;0.70;;;0.70;;
12127;SDS011;6127;57.702;11.904;2024-03-08T07:06:46;0.60;;;0.60;;
12127;SDS011;6127;57.702;11.904;2024-03-08T07:09:15;0.60;;;0.60;;
12127;SDS011;6127;57.702;11.904;2024-03-08T07:11:44;0.70;;;0.70;;
12127;SDS011;6127;57.702;11.904;2024-03-08T07:14:11;0.60;;;0.60;;
12127;SDS011;6127;57.702;11.904;2024-03-08T07:16:40;0.70;;;0.70;;
12127;SDS011;6127;57.702;11.904;2024-03-08T07:19:06;0.60;;;0.60;;
12127;SDS011;6127;57.702;11.904;2024-03-08T07:21:32;0.60;;;0.60;;
12127;SDS011;6127;57.702;11.904;2024-03-08T07:23:58;0.70;;;0.70;;
12127;SDS011;6127;57.702;11.904;2024-03-08T07:26:24;0.60;;;0.60;;
12127;SDS011;6127;57.702;11.904;2024-03-08T07:28:50;0.60;;;0.60;;
12127;SDS011;6127;57.702;11.904;2024-03-08T07:31:16;0.60;;;0.60;;
12127;SDS011;6127;57.702;11.904;2024-03-08T07:34:03;0.55;;;0.55;;
12127;SDS011;6127;57.702;11.904;2024-03-08T07:36:31;0.68;;;0.68;;
12127;SDS011;6127;57.702;11.904;2024-03-08T07:38:57;0.60;;;0.60;;
12127;SDS011;6127;57.702;11.904;2024-03-08T07:41:23;0.60;;;0.60;;
12127;SDS011;6127;57.702;11.904;2024-03-08T07:43:49;0.70;;;0.70;;
12127;SDS011;6127;57.702;11.904;2024-03-08T07:46:15;0.60;;;0.60;;
12127;SDS011;6127;57.702;11.904;2024-03-08T07:48:43;0.70;;;0.70;;
12127;SDS011;6127;57.702;11.904;2024-03-08T07:51:10;0.60;;;0.60;;
12127;SDS011;6127;57.702;11.904;2024-03-08T07:53:37;0.60;;;0.60;;
12127;SDS011;6127;57.702;11.904;2024-03-08T07:56:03;0.77;;;0.77;;
12127;SDS011;6127;57.702;11.904;2024-03-08T07:58:30;0.60;;;0.60;;
12127;SDS011;6127;57.702;11.904;2024-03-08T08:00:56;0.60;;;0.60;;
12127;SDS011;6127;57.702;11.904;2024-03-08T08:03:22;0.60;;;0.60;;
12127;SDS011;6127;57.702;11.904;2024-03-08T08:05:48;0.60;;;0.60;;
12127;SDS011;6127;57.702;11.904;2024-03-08T08:08:14;0.70;;;0.70;;
12127;SDS011;6127;57.702;11.904;2024-03-08T08:10:40;0.60;;;0.60;;
12127;SDS011;6127;57.702;11.904;2024-03-08T08:13:07;0.60;;;0.60;;
12127;SDS011;6127;57.702;11.904;2024-03-08T08:15:33;0.70;;;0.70;;
12127;SDS011;6127;57.702;11.904;2024-03-08T08:17:59;0.60;;;0.60;;
12127;SDS011;6127;57.702;11.904;2024-03-08T08:20:25;0.60;;;0.60;;
12127;SDS011;6127;57.702;11.904;2024-03-08T08:22:53;0.60;;;0.60;;
12127;SDS011;6127;57.702;11.904;2024-03-08T08:25:20;0.60;;;0.60;;
12127;SDS011;6127;57.702;11.904;2024-03-08T08:27:49;0.60;;;0.60;;
12127;SDS011;6127;57.702;11.904;2024-03-08T08:30:15;0.60;;;0.60;;
12127;SDS011;6127;57.702;11.904;2024-03-08T08:32:41;0.60;;;0.60;;
12127;SDS011;6127;57.702;11.904;2024-03-08T08:35:07;0.60;;;0.60;;
12127;SDS011;6127;57.702;11.904;2024-03-08T08:37:34;0.60;;;0.60;;
12127;SDS011;6127;57.702;11.904;2024-03-08T08:40:03;0.60;;;0.60;;
12127;SDS011;6127;57.702;11.904;2024-03-08T08:42:35;0.60;;;0.60;;
12127;SDS011;6127;57.702;11.904;2024-03-08T08:45:01;0.60;;;0.60;;
12127;SDS011;6127;57.702;11.904;2024-03-08T08:47:27;0.50;;;0.50;;
12127;SDS011;6127;57.702;11.904;2024-03-08T08:49:53;0.50;;;0.50;;
12127;SDS011;6127;57.702;11.904;2024-03-08T08:52:19;0.60;;;0.60;;
12127;SDS011;6127;57.702;11.904;2024-03-08T08:54:45;0.60;;;0.60;;
12127;SDS011;6127;57.702;11.904;2024-03-08T08:57:11;0.40;;;0.40;;
12127;SDS011;6127;57.702;11.904;2024-03-08T08:59:37;0.50;;;0.50;;
12127;SDS011;6127;57.702;11.904;2024-03-08T09:02:04;0.50;;;0.50;;
12127;SDS011;6127;57.702;11.904;2024-03-08T09:04:31;0.60;;;0.60;;
12127;SDS011;6127;57.702;11.904;2024-03-08T09:06:57;0.60;;;0.60;;
12127;SDS011;6127;57.702;11.904;2024-03-08T09:11:58;0.50;;;0.50;;
12127;SDS011;6127;57.702;11.904;2024-03-08T09:14:24;0.50;;;0.50;;
12127;SDS011;6127;57.702;11.904;2024-03-08T09:16:51;0.40;;;0.40;;
12127;SDS011;6127;57.702;11.904;2024-03-08T09:19:17;0.52;;;0.52;;
12127;SDS011;6127;57.702;11.904;2024-03-08T09:21:44;0.60;;;0.60;;
12127;SDS011;6127;57.702;11.904;2024-03-08T09:24:10;0.60;;;0.60;;
12127;SDS011;6127;57.702;11.904;2024-03-08T09:26:37;0.60;;;0.60;;
12127;SDS011;6127;57.702;11.904;2024-03-08T09:29:05;0.60;;;0.60;;
12127;SDS011;6127;57.702;11.904;2024-03-08T09:31:32;0.70;;;0.70;;
12127;SDS011;6127;57.702;11.904;2024-03-08T09:33:58;0.70;;;0.70;;
12127;SDS011;6127;57.702;11.904;2024-03-08T09:36:24;0.70;;;0.70;;
12127;SDS011;6127;57.702;11.904;2024-03-08T09:38:50;0.75;;;0.75;;
12127;SDS011;6127;57.702;11.904;2024-03-08T09:41:16;0.80;;;0.80;;
12127;SDS011;6127;57.702;11.904;2024-03-08T09:43:42;0.73;;;0.73;;
12127;SDS011;6127;57.702;11.904;2024-03-08T09:46:08;0.80;;;0.80;;
12127;SDS011;6127;57.702;11.904;2024-03-08T09:48:36;0.80;;;0.80;;
12127;SDS011;6127;57.702;11.904;2024-03-08T09:51:03;0.80;;;0.80;;
12127;SDS011;6127;57.702;11.904;2024-03-08T09:53:29;0.80;;;0.80;;
12127;SDS011;6127;57.702;11.904;2024-03-08T09:55:55;0.80;;;0.80;;
12127;SDS011;6127;57.702;11.904;2024-03-08T09:58:21;0.80;;;0.80;;
12127;SDS011;6127;57.702;11.904;2024-03-08T10:01:01;0.80;;;0.80;;
12127;SDS011;6127;57.702;11.904;2024-03-08T10:03:29;0.80;;;0.80;;
12127;SDS011;6127;57.702;11.904;2024-03-08T10:05:57;0.90;;;0.90;;
12127;SDS011;6127;57.702;11.904;2024-03-08T10:08:25;1.00;;;1.00;;
12127;SDS011;6127;57.702;11.904;2024-03-08T10:10:52;0.80;;;0.80;;
12127;SDS011;6127;57.702;11.904;2024-03-08T10:13:18;0.80;;;0.80;;
12127;SDS011;6127;57.702;11.904;2024-03-08T10:15:44;0.80;;;0.80;;
12127;SDS011;6127;57.702;11.904;2024-03-08T10:18:10;1.40;;;1.40;;
12127;SDS011;6127;57.702;11.904;2024-03-08T10:20:37;1.40;;;1.40;;
12127;SDS011;6127;57.702;11.904;2024-03-08T10:23:03;1.70;;;1.60;;
12127;SDS011;6127;57.702;11.904;2024-03-08T10:25:33;1.40;;;1.40;;
12127;SDS011;6127;57.702;11.904;2024-03-08T10:27:59;2.00;;;1.90;;
12127;SDS011;6127;57.702;11.904;2024-03-08T10:30:25;1.88;;;1.77;;
12127;SDS011;6127;57.702;11.904;2024-03-08T10:32:51;2.10;;;2.00;;
12127;SDS011;6127;57.702;11.904;2024-03-08T10:35:17;2.28;;;2.17;;
12127;SDS011;6127;57.702;11.904;2024-03-08T10:37:50;2.00;;;1.90;;
12127;SDS011;6127;57.702;11.904;2024-03-08T10:40:27;2.00;;;1.90;;
12127;SDS011;6127;57.702;11.904;2024-03-08T10:42:54;2.10;;;2.00;;
12127;SDS011;6127;57.702;11.904;2024-03-08T10:45:37;2.20;;;2.10;;
12127;SDS011;6127;57.702;11.904;2024-03-08T10:48:10;2.20;;;2.10;;
12127;SDS011;6127;57.702;11.904;2024-03-08T10:50:41;2.13;;;2.03;;
12127;SDS011;6127;57.702;11.904;2024-03-08T10:53:10;2.30;;;2.20;;
12127;SDS011;6127;57.702;11.904;2024-03-08T10:55:37;2.10;;;2.00;;
12127;SDS011;6127;57.702;11.904;2024-03-08T10:58:05;2.38;;;2.28;;
12127;SDS011;6127;57.702;11.904;2024-03-08T11:00:33;2.30;;;2.20;;
12127;SDS011;6127;57.702;11.904;2024-03-08T11:02:59;2.40;;;2.30;;
12127;SDS011;6127;57.702;11.904;2024-03-08T11:05:38;1.90;;;1.80;;
12127;SDS011;6127;57.702;11.904;2024-03-08T11:08:20;2.17;;;2.08;;
12127;SDS011;6127;57.702;11.904;2024-03-08T11:10:55;2.10;;;2.00;;
12127;SDS011;6127;57.702;11.904;2024-03-08T11:13:40;2.00;;;1.90;;
12127;SDS011;6127;57.702;11.904;2024-03-08T11:16:07;1.90;;;1.80;;
12127;SDS011;6127;57.702;11.904;2024-03-08T11:18:34;1.88;;;1.77;;
12127;SDS011;6127;57.702;11.904;2024-03-08T11:21:04;1.90;;;1.80;;
12127;SDS011;6127;57.702;11.904;2024-03-08T11:23:37;2.00;;;1.90;;
12127;SDS011;6127;57.702;11.904;2024-03-08T11:26:05;1.90;;;1.80;;
12127;SDS011;6127;57.702;11.904;2024-03-08T11:28:43;1.75;;;1.65;;
12127;SDS011;6127;57.702;11.904;2024-03-08T11:33:35;1.77;;;1.67;;
12127;SDS011;6127;57.702;11.904;2024-03-08T11:36:02;1.98;;;1.88;;
12127;SDS011;6127;57.702;11.904;2024-03-08T11:38:31;1.80;;;1.70;;
12127;SDS011;6127;57.702;11.904;2024-03-08T11:40:58;2.00;;;1.90;;
12127;SDS011;6127;57.702;11.904;2024-03-08T11:43:24;2.33;;;2.22;;
12127;SDS011;6127;57.702;11.904;2024-03-08T11:45:50;1.90;;;1.80;;
12127;SDS011;6127;57.702;11.904;2024-03-08T11:48:18;1.90;;;1.80;;
12127;SDS011;6127;57.702;11.904;2024-03-08T11:50:44;2.30;;;2.20;;
12127;SDS011;6127;57.702;11.904;2024-03-08T11:53:09;2.10;;;2.00;;
12127;SDS011;6127;57.702;11.904;2024-03-08T11:55:37;1.10;;;1.10;;
12127;SDS011;6127;57.702;11.904;2024-03-08T11:58:03;1.10;;;1.10;;
12127;SDS011;6127;57.702;11.904;2024-03-08T12:00:29;1.10;;;1.10;;
12127;SDS011;6127;57.702;11.904;2024-03-08T12:03:06;1.10;;;1.10;;
12127;SDS011;6127;57.702;11.904;2024-03-08T12:05:32;1.20;;;1.20;;
12127;SDS011;6127;57.702;11.904;2024-03-08T12:07:58;1.10;;;1.10;;
12127;SDS011;6127;57.702;11.904;2024-03-08T12:10:24;1.10;;;1.10;;
12127;SDS011;6127;57.702;11.904;2024-03-08T12:12:51;1.00;;;1.00;;
12127;SDS011;6127;57.702;11.904;2024-03-08T12:15:18;1.15;;;1.15;;
12127;SDS011;6127;57.702;11.904;2024-03-08T12:17:44;1.10;;;1.10;;
12127;SDS011;6127;57.702;11.904;2024-03-08T12:20:19;1.03;;;1.03;;
12127;SDS011;6127;57.702;11.904;2024-03-08T12:22:55;1.10;;;1.10;;
12127;SDS011;6127;57.702;11.904;2024-03-08T12:25:22;1.00;;;1.00;;
12127;SDS011;6127;57.702;11.904;2024-03-08T12:27:48;1.20;;;1.20;;
12127;SDS011;6127;57.702;11.904;2024-03-08T12:30:15;1.10;;;1.10;;
12127;SDS011;6127;57.702;11.904;2024-03-08T12:32:46;1.20;;;1.20;;
12127;SDS011;6127;57.702;11.904;2024-03-08T12:35:12;1.20;;;1.20;;
12127;SDS011;6127;57.702;11.904;2024-03-08T12:37:38;1.08;;;1.08;;
12127;SDS011;6127;57.702;11.904;2024-03-08T12:42:32;1.20;;;1.20;;
12127;SDS011;6127;57.702;11.904;2024-03-08T12:44:59;1.20;;;1.20;;
12127;SDS011;6127;57.702;11.904;2024-03-08T12:47:26;1.10;;;1.10;;
12127;SDS011;6127;57.702;11.904;2024-03-08T12:49:55;1.10;;;1.10;;
12127;SDS011;6127;57.702;11.904;2024-03-08T12:52:21;1.10;;;1.10;;
12127;SDS011;6127;57.702;11.904;2024-03-08T12:54:47;0.90;;;0.90;;
12127;SDS011;6127;57.702;11.904;2024-03-08T12:57:14;1.10;;;1.10;;
12127;SDS011;6127;57.702;11.904;2024-03-08T12:59:41;1.00;;;1.00;;
12127;SDS011;6127;57.702;11.904;2024-03-08T13:02:07;0.90;;;0.90;;
12127;SDS011;6127;57.702;11.904;2024-03-08T13:04:36;1.10;;;1.10;;
12127;SDS011;6127;57.702;11.904;2024-03-08T13:07:02;0.93;;;0.93;;
12127;SDS011;6127;57.702;11.904;2024-03-08T13:09:28;1.02;;;1.02;;
12127;SDS011;6127;57.702;11.904;2024-03-08T13:11:54;0.95;;;0.95;;
12127;SDS011;6127;57.702;11.904;2024-03-08T13:14:20;1.00;;;1.00;;
12127;SDS011;6127;57.702;11.904;2024-03-08T13:16:47;0.90;;;0.90;;
12127;SDS011;6127;57.702;11.904;2024-03-08T13:19:13;1.00;;;1.00;;
12127;SDS011;6127;57.702;11.904;2024-03-08T13:21:39;1.00;;;1.00;;
12127;SDS011;6127;57.702;11.904;2024-03-08T13:24:07;1.00;;;1.00;;
12127;SDS011;6127;57.702;11.904;2024-03-08T13:26:33;1.00;;;1.00;;
12127;SDS011;6127;57.702;11.904;2024-03-08T13:28:59;1.10;;;1.10;;
12127;SDS011;6127;57.702;11.904;2024-03-08T13:31:25;1.00;;;1.00;;
12127;SDS011;6127;57.702;11.904;2024-03-08T13:33:51;1.00;;;1.00;;
12127;SDS011;6127;57.702;11.904;2024-03-08T13:36:22;0.90;;;0.90;;
12127;SDS011;6127;57.702;11.904;2024-03-08T13:38:49;1.08;;;1.08;;
12127;SDS011;6127;57.702;11.904;2024-03-08T13:41:15;1.00;;;1.00;;
12127;SDS011;6127;57.702;11.904;2024-03-08T13:43:45;1.08;;;1.08;;
12127;SDS011;6127;57.702;11.904;2024-03-08T13:46:14;0.90;;;0.90;;
12127;SDS011;6127;57.702;11.904;2024-03-08T13:48:40;1.10;;;1.10;;
12127;SDS011;6127;57.702;11.904;2024-03-08T13:51:06;1.10;;;1.10;;
12127;SDS011;6127;57.702;11.904;2024-03-08T13:53:33;1.10;;;1.10;;
12127;SDS011;6127;57.702;11.904;2024-03-08T13:56:02;1.00;;;1.00;;
12127;SDS011;6127;57.702;11.904;2024-03-08T13:58:28;0.95;;;0.95;;
12127;SDS011;6127;57.702;11.904;2024-03-08T14:00:54;1.00;;;1.00;;
12127;SDS011;6127;57.702;11.904;2024-03-08T14:03:21;0.90;;;0.90;;
12127;SDS011;6127;57.702;11.904;2024-03-08T14:05:48;0.93;;;0.93;;
12127;SDS011;6127;57.702;11.904;2024-03-08T14:08:14;0.93;;;0.93;;
12127;SDS011;6127;57.702;11.904;2024-03-08T14:26:27;0.90;;;0.90;;
12127;SDS011;6127;57.702;11.904;2024-03-08T14:28:53;1.40;;;1.40;;
12127;SDS011;6127;57.702;11.904;2024-03-08T14:31:20;1.10;;;1.10;;
12127;SDS011;6127;57.702;11.904;2024-03-08T14:33:48;1.10;;;1.10;;
12127;SDS011;6127;57.702;11.904;2024-03-08T14:36:15;1.10;;;1.10;;
12127;SDS011;6127;57.702;11.904;2024-03-08T14:38:44;1.17;;;1.17;;
12127;SDS011;6127;57.702;11.904;2024-03-08T14:41:12;1.07;;;1.07;;
12127;SDS011;6127;57.702;11.904;2024-03-08T14:43:41;1.80;;;1.70;;
12127;SDS011;6127;57.702;11.904;2024-03-08T14:46:09;2.40;;;2.30;;
12127;SDS011;6127;57.702;11.904;2024-03-08T14:48:38;1.90;;;1.80;;
12127;SDS011;6127;57.702;11.904;2024-03-08T14:51:05;1.90;;;1.80;;
12127;SDS011;6127;57.702;11.904;2024-03-08T14:53:35;2.05;;;1.95;;
12127;SDS011;6127;57.702;11.904;2024-03-08T14:56:01;2.03;;;1.92;;
12127;SDS011;6127;57.702;11.904;2024-03-08T14:58:27;1.80;;;1.70;;
12127;SDS011;6127;57.702;11.904;2024-03-08T15:00:53;1.70;;;1.60;;
12127;SDS011;6127;57.702;11.904;2024-03-08T15:03:20;1.80;;;1.70;;
12127;SDS011;6127;57.702;11.904;2024-03-08T15:05:50;2.10;;;2.00;;
12127;SDS011;6127;57.702;11.904;2024-03-08T15:08:16;1.85;;;1.75;;
12127;SDS011;6127;57.702;11.904;2024-03-08T15:10:45;2.37;;;2.27;;
12127;SDS011;6127;57.702;11.904;2024-03-08T15:13:12;1.85;;;1.75;;
12127;SDS011;6127;57.702;11.904;2024-03-08T15:15:46;2.10;;;2.00;;
12127;SDS011;6127;57.702;11.904;2024-03-08T15:18:12;2.10;;;2.00;;
12127;SDS011;6127;57.702;11.904;2024-03-08T15:20:39;2.00;;;1.90;;
12127;SDS011;6127;57.702;11.904;2024-03-08T15:23:06;2.00;;;1.90;;
12127;SDS011;6127;57.702;11.904;2024-03-08T15:25:34;1.83;;;1.73;;
12127;SDS011;6127;57.702;11.904;2024-03-08T15:28:01;2.00;;;1.90;;
12127;SDS011;6127;57.702;11.904;2024-03-08T15:30:30;1.80;;;1.70;;
12127;SDS011;6127;57.702;11.904;2024-03-08T15:32:58;1.90;;;1.80;;
12127;SDS011;6127;57.702;11.904;2024-03-08T15:35:28;1.88;;;1.77;;
12127;SDS011;6127;57.702;11.904;2024-03-08T15:37:54;2.08;;;1.98;;
12127;SDS011;6127;57.702;11.904;2024-03-08T15:43:03;1.77;;;1.67;;
12127;SDS011;6127;57.702;11.904;2024-03-08T15:45:30;1.50;;;1.50;;
12127;SDS011;6127;57.702;11.904;2024-03-08T15:47:57;1.50;;;1.50;;
12127;SDS011;6127;57.702;11.904;2024-03-08T15:50:23;1.50;;;1.50;;
12127;SDS011;6127;57.702;11.904;2024-03-08T15:52:49;1.70;;;1.60;;
12127;SDS011;6127;57.702;11.904;2024-03-08T15:55:17;1.40;;;1.40;;